Time;durP1;ratioP1;P1;durP2;ratioP2;P2;SDS_P1;SDS_P2;PMS_P1;PMS_P2;Temp;Humidity;BMP_temperature;BMP_pressure;BME280_temperature;BME280_humidity;BME280_pressure;Samples;Min_cycle;Max_cycle;Signal;HPM_P1;HPM_P2
2024/04/04 00:00:24;;;;;;;1.55;0.73;;;;;;;14.14;63.00;99673.19;6323769;28;20052;-67
2024/04/04 00:03:25;;;;;;;2.93;0.70;;;;;;;14.08;63.29;99675.38;6323921;28;20070;-67
2024/04/04 00:06:28;;;;;;;2.75;0.60;;;;;;;14.08;63.15;99670.13;6323852;28;20083;-67
2024/04/04 00:09:29;;;;;;;2.65;0.40;;;;;;;14.15;62.86;99678.31;6323491;28;20430;-67
2024/04/04 00:12:32;;;;;;;0.50;0.22;;;;;;;13.99;63.18;99672.66;6323895;28;20101;-67
2024/04/04 00:15:41;;;;;;;1.10;0.45;;;;;;;13.82;62.80;99671.41;6322359;28;20450;-76
2024/04/04 00:18:42;;;;;;;0.25;0.20;;;;;;;13.99;63.20;99662.97;6322289;28;20552;-76
2024/04/04 00:21:43;;;;;;;1.35;0.40;;;;;;;13.99;63.57;99657.72;6322182;28;20060;-67
2024/04/04 00:24:44;;;;;;;1.42;0.30;;;;;;;13.95;63.31;99661.56;6322856;28;20059;-76
2024/04/04 00:27:45;;;;;;;1.15;0.47;;;;;;;13.80;63.86;99650.53;6322136;28;20055;-76
2024/04/04 00:30:45;;;;;;;1.70;0.45;;;;;;;13.83;64.10;99645.03;6322254;28;20052;-67
2024/04/04 00:33:46;;;;;;;0.55;0.30;;;;;;;13.91;64.52;99657.53;6321999;28;20056;-76
2024/04/04 00:36:48;;;;;;;0.85;0.40;;;;;;;13.84;64.79;99657.19;6321926;28;20176;-76
2024/04/04 00:39:48;;;;;;;2.70;0.57;;;;;;;13.86;64.92;99651.84;6322850;28;20141;-76
2024/04/04 00:42:50;;;;;;;4.18;0.30;;;;;;;13.85;65.55;99656.22;6320991;28;20083;-68
2024/04/04 00:45:51;;;;;;;1.27;0.40;;;;;;;13.84;65.23;99651.94;6322520;28;20083;-67
2024/04/04 00:48:53;;;;;;;2.25;0.65;;;;;;;13.86;65.64;99662.31;6321287;28;20059;-67
2024/04/04 00:51:54;;;;;;;2.22;0.68;;;;;;;13.85;66.13;99653.59;6321470;28;20074;-67
2024/04/04 00:54:59;;;;;;;0.90;0.47;;;;;;;13.76;65.47;99664.84;6322752;28;20055;-76
2024/04/04 00:58:00;;;;;;;2.90;0.60;;;;;;;13.70;66.36;99662.72;6321472;28;20047;-76
2024/04/04 01:01:04;;;;;;;3.87;0.43;;;;;;;13.69;66.97;99666.28;6321335;28;20052;-76
2024/04/04 01:04:05;;;;;;;1.13;0.73;;;;;;;13.75;67.00;99664.97;6322568;28;20052;-67
2024/04/04 01:07:08;;;;;;;0.40;0.30;;;;;;;13.80;67.75;99662.81;6322456;28;19947;-67
2024/04/04 01:10:09;;;;;;;0.88;0.40;;;;;;;13.80;69.63;99662.81;6322202;28;20121;-67
2024/04/04 01:13:10;;;;;;;1.63;0.50;;;;;;;13.69;69.87;99667.13;6322429;28;20055;-67
2024/04/04 01:16:11;;;;;;;1.83;0.50;;;;;;;13.52;71.87;99666.81;6322126;28;20044;-77
2024/04/04 01:19:12;;;;;;;1.15;0.40;;;;;;;13.49;72.68;99675.75;6322126;28;20052;-67
2024/04/04 01:22:13;;;;;;;2.55;0.40;;;;;;;13.52;72.69;99666.81;6320893;28;20059;-76
2024/04/04 01:25:14;;;;;;;0.35;0.25;;;;;;;13.48;74.45;99681.94;6320835;28;20052;-76
2024/04/04 01:28:15;;;;;;;1.13;0.40;;;;;;;13.46;75.33;99675.97;6321894;28;20052;-75
2024/04/04 01:31:19;;;;;;;1.60;0.43;;;;;;;13.35;76.64;99676.84;6321912;28;20091;-76
2024/04/04 01:34:20;;;;;;;0.63;0.43;;;;;;;13.32;77.65;99681.47;6320675;28;20048;-76
2024/04/04 01:37:21;;;;;;;1.10;0.47;;;;;;;13.29;79.09;99675.53;6321820;28;20518;-76
2024/04/04 01:40:22;;;;;;;0.30;0.20;;;;;;;13.25;77.64;99676.69;6321976;28;20101;-76
2024/04/04 01:43:23;;;;;;;2.42;0.50;;;;;;;13.27;78.63;99673.94;6321606;28;20476;-76
2024/04/04 01:46:24;;;;;;;0.50;0.50;;;;;;;13.25;79.44;99681.09;6320314;28;20109;-76
2024/04/04 01:49:27;;;;;;;0.63;0.50;;;;;;;13.24;80.24;99689.88;6321250;28;20443;-76
2024/04/04 01:52:30;;;;;;;3.50;0.43;;;;;;;13.05;80.60;99685.25;6319659;28;20051;-76
2024/04/04 01:55:33;;;;;;;0.65;0.40;;;;;;;13.06;80.02;99685.13;6321242;28;20044;-76
2024/04/04 01:58:34;;;;;;;0.93;0.40;;;;;;;13.01;79.74;99689.06;6321149;28;20135;-67
2024/04/04 02:01:35;;;;;;;1.17;0.52;;;;;;;13.04;80.06;99683.59;6321395;28;20129;-76
2024/04/04 02:04:38;;;;;;;3.70;0.50;;;;;;;13.08;79.68;99683.22;6320146;28;20083;-77
2024/04/04 02:07:39;;;;;;;0.32;0.32;;;;;;;13.04;81.08;99680.97;6321451;28;20044;-67
2024/04/04 02:10:42;;;;;;;2.25;0.63;;;;;;;13.02;80.77;99686.31;6321400;28;20060;-67
2024/04/04 02:13:43;;;;;;;0.63;0.40;;;;;;;12.99;82.33;99699.66;6320048;28;20132;-67
2024/04/04 02:16:45;;;;;;;2.17;0.57;;;;;;;13.07;81.59;99701.69;6321147;28;20048;-67
2024/04/04 02:19:46;;;;;;;;;;;;;;;13.01;82.87;99702.16;6321719;28;20056;-76
2024/04/04 02:22:49;;;;;;;1.67;0.90;;;;;;;12.94;84.51;99699.19;6321056;28;19945;-67
2024/04/04 02:25:50;;;;;;;1.38;0.60;;;;;;;12.95;85.44;99710.47;6320038;28;20048;-76
2024/04/04 02:28:51;;;;;;;1.20;0.30;;;;;;;12.95;86.16;99702.63;6319962;28;20052;-76
2024/04/04 02:31:52;;;;;;;0.70;0.40;;;;;;;12.87;87.11;99704.06;6321146;28;20056;-66
2024/04/04 02:34:53;;;;;;;1.83;0.60;;;;;;;12.87;86.75;99705.84;6319884;28;20048;-76
2024/04/04 02:37:54;;;;;;;1.27;0.30;;;;;;;12.92;87.13;99706.31;6321207;28;20106;-67
2024/04/04 02:40:55;;;;;;;0.77;0.50;;;;;;;12.79;87.75;99714.28;6320910;28;20056;-66
2024/04/04 02:43:56;;;;;;;3.27;1.10;;;;;;;12.78;88.60;99715.22;6319652;28;20059;-76
2024/04/04 02:46:57;;;;;;;6.68;1.00;;;;;;;12.82;92.16;99710.59;6319890;28;20048;-76
2024/04/04 02:49:58;;;;;;;1.85;0.80;;;;;;;12.85;93.84;99713.81;6319228;28;20056;-66
2024/04/04 02:53:01;;;;;;;4.10;1.13;;;;;;;12.84;96.04;99722.59;6320203;28;20465;-66
2024/04/04 02:56:02;;;;;;;10.02;3.53;;;;;;;12.71;93.29;99721.88;6320669;28;20135;-76
2024/04/04 02:59:03;;;;;;;7.88;2.35;;;;;;;12.77;94.33;99723.19;6319585;28;20044;-76
2024/04/04 03:02:04;;;;;;;8.05;3.03;;;;;;;12.80;96.69;99715.94;6319012;28;20484;-66
2024/04/04 03:05:05;;;;;;;8.88;2.67;;;;;;;12.77;100.00;99734.50;6319633;28;20048;-77
2024/04/04 03:08:07;;;;;;;7.50;2.60;;;;;;;12.78;100.00;99728.28;6320737;28;20055;-77
2024/04/04 03:11:11;;;;;;;7.95;3.08;;;;;;;12.79;100.00;99729.97;6323033;28;20483;-76
2024/04/04 03:14:11;;;;;;;7.30;3.55;;;;;;;12.77;100.00;99736.28;6324216;28;20056;-76
2024/04/04 03:17:12;;;;;;;11.32;3.45;;;;;;;12.73;100.00;99732.22;6325391;28;20056;-76
2024/04/04 03:20:15;;;;;;;8.35;3.30;;;;;;;12.72;100.00;99738.41;6325026;28;20053;-67
2024/04/04 03:23:19;;;;;;;10.00;3.28;;;;;;;12.70;100.00;99730.66;6324799;28;20066;-67
2024/04/04 03:26:20;;;;;;;9.23;3.42;;;;;;;12.72;100.00;99736.63;6324744;28;20043;-67
2024/04/04 03:29:21;;;;;;;7.38;2.72;;;;;;;12.66;100.00;99731.84;6323613;28;20448;-67
2024/04/04 03:32:22;;;;;;;4.05;1.60;;;;;;;12.56;100.00;99729.09;6324850;28;20415;-67
2024/04/04 03:35:23;;;;;;;3.75;1.10;;;;;;;12.53;100.00;99731.09;6323559;28;20408;-76
2024/04/04 03:38:24;;;;;;;1.23;1.02;;;;;;;12.43;100.00;99730.94;6324759;28;20052;-67
2024/04/04 03:41:25;;;;;;;3.92;1.20;;;;;;;12.52;100.00;99735.50;6324082;28;20372;-67
2024/04/04 03:44:26;;;;;;;1.90;0.90;;;;;;;12.54;100.00;99731.00;6315805;28;20088;-76
2024/04/04 03:47:27;;;;;;;0.77;0.50;;;;;;;12.52;100.00;99739.88;6298457;28;20526;-66
2024/04/04 03:50:28;;;;;;;0.70;0.60;;;;;;;12.45;100.00;99736.88;6299361;28;20135;-76
2024/04/04 03:53:29;;;;;;;0.70;0.45;;;;;;;12.44;100.00;99738.69;6298956;28;20474;-67
2024/04/04 03:56:30;;;;;;;1.45;0.70;;;;;;;12.38;100.00;99739.13;6297866;28;20492;-67
2024/04/04 03:59:33;;;;;;;1.25;0.80;;;;;;;12.29;100.00;99742.41;6299101;28;20052;-67
2024/04/04 04:02:35;;;;;;;1.30;0.90;;;;;;;12.24;100.00;99744.53;6298737;28;20053;-67
2024/04/04 04:05:36;;;;;;;13.30;6.15;;;;;;;12.27;100.00;99742.53;6298981;28;20132;-77
2024/04/04 04:08:37;;;;;;;7.50;3.38;;;;;;;12.33;100.00;99743.03;6301144;28;20151;-67
2024/04/04 04:11:38;;;;;;;7.78;3.00;;;;;;;12.24;100.00;99747.16;6322294;28;20051;-67
2024/04/04 04:14:39;;;;;;;5.25;2.95;;;;;;;12.23;100.00;99748.09;6323782;28;20047;-76
2024/04/04 04:17:40;;;;;;;9.63;4.05;;;;;;;12.32;100.00;99749.22;6324028;28;20491;-67
2024/04/04 04:24:17;;;;;;;7.50;3.00;;;;;;;12.26;100.00;99764.41;6271511;28;20102;-67
2024/04/04 04:27:18;;;;;;;8.50;3.58;;;;;;;12.26;100.00;99761.78;6322096;28;20051;-67
2024/04/04 04:30:19;;;;;;;16.60;7.85;;;;;;;12.29;100.00;99763.34;6322404;28;20542;-76
2024/04/04 04:33:20;;;;;;;16.35;8.38;;;;;;;12.34;100.00;99756.00;6321438;28;20082;-67
2024/04/04 04:36:26;;;;;;;33.40;15.88;;;;;;;12.41;100.00;99767.66;6322000;28;20051;-67
2024/04/04 04:39:28;;;;;;;31.35;15.02;;;;;;;12.41;100.00;99770.28;6321879;28;20113;-67
2024/04/04 04:42:29;;;;;;;21.98;9.75;;;;;;;12.40;100.00;99766.00;6322743;28;20059;-67
2024/04/04 04:45:30;;;;;;;15.30;8.82;;;;;;;12.41;100.00;99774.69;6321260;28;20079;-67
2024/04/04 04:48:31;;;;;;;18.13;10.18;;;;;;;12.43;100.00;99770.19;6321729;28;20491;-67
2024/04/04 04:51:34;;;;;;;13.25;7.80;;;;;;;12.47;100.00;99767.22;6322699;28;20466;-77
2024/04/04 04:54:37;;;;;;;13.43;6.78;;;;;;;12.45;100.00;99773.53;6322873;28;20480;-67
2024/04/04 04:57:43;;;;;;;7.72;4.60;;;;;;;12.45;100.00;99774.34;6322697;28;20056;-77
2024/04/04 05:00:44;;;;;;;5.60;3.60;;;;;;;12.50;100.00;99774.84;6320250;28;20364;-77
2024/04/04 05:03:48;;;;;;;8.00;4.60;;;;;;;12.56;100.00;99781.44;6314638;28;20044;-67
2024/04/04 05:06:49;;;;;;;9.60;5.32;;;;;;;12.55;100.00;99782.38;6313562;28;20126;-77
2024/04/04 05:09:49;;;;;;;7.43;4.63;;;;;;;12.58;100.00;99776.06;6317270;28;20048;-76
2024/04/04 05:12:50;;;;;;;9.70;4.90;;;;;;;12.63;100.00;99781.81;6313262;28;20048;-77
2024/04/04 05:15:55;;;;;;;7.55;4.43;;;;;;;12.68;100.00;99791.00;6307845;28;20096;-76
2024/04/04 05:18:56;;;;;;;9.95;4.90;;;;;;;12.74;100.00;99788.88;6317460;28;20583;-76
2024/04/04 05:21:57;;;;;;;9.25;5.72;;;;;;;12.78;100.00;99790.31;6321015;28;20048;-76
2024/04/04 05:25:00;;;;;;;7.60;4.90;;;;;;;12.78;100.00;99795.53;6321139;28;20056;-77
2024/04/04 05:28:06;;;;;;;7.57;4.13;;;;;;;12.85;100.00;99791.53;6319106;28;20056;-76
2024/04/04 05:31:07;;;;;;;6.32;3.28;;;;;;;12.94;100.00;99788.22;6305777;28;20052;-77
2024/04/04 05:34:09;;;;;;;8.18;4.05;;;;;;;13.06;100.00;99789.91;6295447;28;20052;-76
2024/04/04 05:37:10;;;;;;;7.70;4.18;;;;;;;13.23;100.00;99793.84;6299303;28;20040;-76
2024/04/04 05:40:13;;;;;;;11.33;4.10;;;;;;;13.45;100.00;99797.50;6311792;28;20052;-77
2024/04/04 05:43:23;;;;;;;12.48;4.28;;;;;;;13.66;100.00;99797.63;6320417;28;20056;-77
2024/04/04 05:46:24;;;;;;;8.32;4.10;;;;;;;13.81;100.00;99801.66;6319376;28;20040;-67
2024/04/04 05:49:25;;;;;;;4.40;2.30;;;;;;;14.04;100.00;99799.00;6317488;28;20044;-67
2024/04/04 05:52:26;;;;;;;4.63;2.70;;;;;;;14.19;100.00;99805.66;6306809;28;20040;-77
2024/04/04 05:55:29;;;;;;;8.50;2.55;;;;;;;14.25;100.00;99799.94;6313494;28;20416;-67
2024/04/04 05:58:30;;;;;;;4.97;2.75;;;;;;;14.16;100.00;99803.28;6299657;28;20052;-76
2024/04/04 06:01:31;;;;;;;6.68;2.55;;;;;;;14.21;100.00;99811.63;6318302;28;20108;-67
2024/04/04 06:04:33;;;;;;;3.67;2.00;;;;;;;14.22;100.00;99810.66;6317640;28;20131;-76
2024/04/04 06:07:35;;;;;;;5.43;2.20;;;;;;;14.14;100.00;99804.34;6320284;28;20044;-76
2024/04/04 06:10:38;;;;;;;6.03;2.58;;;;;;;14.06;100.00;99803.19;6320398;28;20109;-76
2024/04/04 06:13:41;;;;;;;5.75;2.38;;;;;;;14.16;100.00;99805.91;6311827;28;20137;-67
2024/04/04 06:16:42;;;;;;;3.50;2.25;;;;;;;14.19;100.00;99800.41;6316247;28;20079;-67
2024/04/04 06:19:43;;;;;;;8.20;2.58;;;;;;;14.16;100.00;99800.66;6300619;28;20411;-77
2024/04/04 06:22:47;;;;;;;3.47;2.13;;;;;;;13.97;100.00;99801.28;6312454;28;20084;-67
2024/04/04 06:25:47;;;;;;;4.85;1.85;;;;;;;13.93;100.00;99799.03;6316682;28;20156;-67
2024/04/04 06:28:49;;;;;;;3.22;1.40;;;;;;;13.93;100.00;99792.00;6293855;28;20143;-77
2024/04/04 06:31:50;;;;;;;4.03;2.40;;;;;;;13.87;100.00;99798.53;6314308;28;20563;-76
2024/04/04 06:34:51;;;;;;;5.18;2.95;;;;;;;14.01;99.07;99799.25;6308197;28;20070;-67
2024/04/04 06:37:52;;;;;;;6.38;2.65;;;;;;;14.08;98.97;99803.06;6308726;28;20491;-76
2024/04/04 06:40:53;;;;;;;2.60;1.90;;;;;;;14.16;100.00;99802.44;6318758;28;20048;-67
2024/04/04 06:43:53;;;;;;;3.67;1.67;;;;;;;14.07;100.00;99810.09;6311184;28;20056;-76
2024/04/04 06:46:54;;;;;;;3.78;1.67;;;;;;;14.25;99.23;99813.03;6298627;28;20470;-76
2024/04/04 06:49:55;;;;;;;4.75;1.60;;;;;;;14.58;99.84;99805.19;6319546;28;20518;-76
2024/04/04 06:52:56;;;;;;;2.22;1.00;;;;;;;14.46;95.18;99801.78;6315212;28;20071;-76
2024/04/04 06:55:57;;;;;;;1.27;0.90;;;;;;;14.48;95.25;99798.06;6308423;28;20044;-76
2024/04/04 06:58:57;;;;;;;2.15;1.05;;;;;;;14.71;97.95;99806.72;6315623;28;20538;-76
2024/04/04 07:01:58;;;;;;;2.63;0.98;;;;;;;14.56;92.83;99796.63;6316088;28;20128;-76
2024/04/04 07:04:59;;;;;;;3.20;1.20;;;;;;;14.52;92.63;99803.91;6315060;28;20056;-68
2024/04/04 07:08:01;;;;;;;2.28;0.70;;;;;;;14.48;93.17;99811.19;6323054;28;20500;-77
2024/04/04 07:11:04;;;;;;;2.05;0.90;;;;;;;14.38;93.18;99810.25;6324470;28;20051;-77
2024/04/04 07:14:05;;;;;;;0.65;0.65;;;;;;;14.41;92.95;99815.28;6322945;28;20052;-77
2024/04/04 07:17:06;;;;;;;1.27;0.63;;;;;;;14.31;91.98;99814.34;6324240;28;20043;-78
2024/04/04 07:20:07;;;;;;;6.60;0.93;;;;;;;14.32;90.70;99814.22;6307970;28;20101;-68
2024/04/04 07:23:08;;;;;;;3.17;1.15;;;;;;;14.19;91.07;99810.09;6320034;28;20051;-67
2024/04/04 07:26:09;;;;;;;11.10;1.20;;;;;;;14.11;90.51;99813.31;6310329;28;20130;-68
2024/04/04 07:29:10;;;;;;;1.70;1.00;;;;;;;14.22;90.04;99821.16;6318535;28;20044;-77
2024/04/04 07:32:11;;;;;;;8.05;1.33;;;;;;;14.38;90.12;99819.94;6319711;28;20048;-76
2024/04/04 07:35:12;;;;;;;9.98;1.17;;;;;;;14.55;91.53;99818.56;6309559;28;20049;-77
2024/04/04 07:38:13;;;;;;;6.43;1.27;;;;;;;14.63;89.76;99818.81;6301345;28;20040;-77
2024/04/04 07:41:17;;;;;;;2.25;1.40;;;;;;;14.76;86.65;99822.06;6321369;28;20048;-77
2024/04/04 07:44:19;;;;;;;2.28;1.33;;;;;;;15.17;88.10;99817.81;6322522;28;20499;-77
2024/04/04 07:47:22;;;;;;;5.85;1.70;;;;;;;15.34;87.05;99821.66;6322756;28;20084;-77
2024/04/04 07:50:23;;;;;;;5.65;1.90;;;;;;;15.56;86.37;99818.03;6323271;28;20048;-77
2024/04/04 07:53:24;;;;;;;5.72;1.92;;;;;;;15.91;84.09;99822.91;6321236;28;20106;-67
2024/04/04 07:56:26;;;;;;;4.60;2.25;;;;;;;16.10;81.92;99829.19;6320907;28;20044;-77
2024/04/04 07:59:26;;;;;;;8.87;2.60;;;;;;;16.54;82.08;99834.13;6321292;28;20052;-67
2024/04/04 08:02:29;;;;;;;4.78;2.40;;;;;;;16.51;80.76;99835.22;6322454;28;20412;-67
2024/04/04 08:05:33;;;;;;;4.50;2.40;;;;;;;16.27;80.07;99838.25;6322266;28;20054;-68
2024/04/04 08:08:33;;;;;;;6.35;2.75;;;;;;;16.09;81.84;99843.31;6322070;28;20419;-77
2024/04/04 08:11:34;;;;;;;11.27;2.53;;;;;;;16.28;80.80;99853.06;6300034;28;20063;-77
2024/04/04 08:14:36;;;;;;;4.78;2.17;;;;;;;16.27;80.91;99846.97;6305196;28;20056;-77
2024/04/04 08:17:40;;;;;;;2.80;1.70;;;;;;;16.08;80.27;99855.66;6320939;28;20503;-68
2024/04/04 08:20:45;;;;;;;8.50;2.10;;;;;;;16.21;78.71;99865.13;6322067;28;20415;-77
2024/04/04 08:23:48;;;;;;;6.43;2.08;;;;;;;16.34;78.87;99870.13;6320976;28;20047;-77
2024/04/04 08:26:49;;;;;;;5.35;2.03;;;;;;;16.60;77.44;99873.09;6322269;28;20083;-77
2024/04/04 08:29:50;;;;;;;2.00;1.40;;;;;;;16.90;73.53;99872.16;6321992;28;20051;-77
2024/04/04 08:32:51;;;;;;;5.57;1.98;;;;;;;17.16;70.46;99880.34;6320816;28;20051;-77
2024/04/04 08:35:53;;;;;;;4.90;1.77;;;;;;;17.07;72.27;99886.44;6320367;28;20462;-68
2024/04/04 08:38:53;;;;;;;5.03;1.83;;;;;;;17.41;72.46;99876.28;6321816;28;20087;-67
2024/04/04 08:41:54;;;;;;;3.63;1.17;;;;;;;17.38;69.64;99883.63;6308195;28;20052;-67
2024/04/04 08:44:56;;;;;;;5.32;1.58;;;;;;;17.47;69.89;99880.97;6295230;28;20101;-68
2024/04/04 08:48:01;;;;;;;6.20;1.38;;;;;;;17.57;69.29;99865.13;6296270;28;20094;-77
2024/04/04 08:51:02;;;;;;;5.18;1.75;;;;;;;18.06;65.96;99871.09;6296622;28;20515;-68
2024/04/04 08:54:03;;;;;;;3.40;1.13;;;;;;;18.37;65.80;99868.16;6306922;28;20060;-68
2024/04/04 08:57:05;;;;;;;4.72;1.23;;;;;;;17.91;68.07;99868.13;6308998;28;20536;-77
2024/04/04 09:00:11;;;;;;;1.40;0.90;;;;;;;18.12;66.76;99859.97;6317432;28;20052;-67
2024/04/04 09:03:13;;;;;;;1.58;0.77;;;;;;;18.55;62.51;99875.25;6300752;28;20052;-67
2024/04/04 09:06:17;;;;;;;1.02;0.80;;;;;;;17.32;62.42;99863.97;6298251;28;20048;-77
2024/04/04 09:09:21;;;;;;;3.45;1.17;;;;;;;18.37;64.09;99869.97;6294790;28;20083;-76
2024/04/04 09:12:21;;;;;;;0.95;0.32;;;;;;;18.67;60.21;99866.97;6295091;28;20045;-77
2024/04/04 09:15:23;;;;;;;1.73;0.80;;;;;;;19.00;58.81;99856.72;6294388;28;20075;-77
2024/04/04 09:18:24;;;;;;;2.95;0.68;;;;;;;19.10;59.31;99865.38;6295549;28;20052;-77
2024/04/04 09:21:25;;;;;;;1.50;0.47;;;;;;;19.43;57.71;99859.50;6295255;28;20102;-77
2024/04/04 09:24:28;;;;;;;5.40;0.90;;;;;;;19.40;58.92;99867.78;6295594;28;20580;-67
2024/04/04 09:27:32;;;;;;;1.35;0.52;;;;;;;19.75;59.00;99861.56;6295019;28;20041;-68
2024/04/04 09:30:35;;;;;;;3.08;0.60;;;;;;;18.42;59.60;99870.34;6294153;28;20044;-67
2024/04/04 09:33:36;;;;;;;1.27;0.77;;;;;;;17.86;58.77;99866.88;6295316;28;20056;-68
2024/04/04 09:36:40;;;;;;;0.98;0.50;;;;;;;19.12;57.36;99868.72;6312388;28;20092;-78
2024/04/04 09:39:41;;;;;;;1.98;0.82;;;;;;;19.76;57.05;99871.16;6320460;28;20083;-77
2024/04/04 09:42:44;;;;;;;2.80;0.60;;;;;;;20.19;58.31;99872.00;6320527;28;20059;-77
2024/04/04 09:45:45;;;;;;;1.52;0.43;;;;;;;19.25;55.35;99870.97;6319006;28;20120;-76
2024/04/04 09:48:50;;;;;;;0.80;0.63;;;;;;;18.66;54.46;99875.88;6318652;28;20552;-76
2024/04/04 09:51:54;;;;;;;0.30;0.28;;;;;;;18.61;52.71;99870.19;6320149;28;20055;-77
2024/04/04 09:54:57;;;;;;;0.93;0.32;;;;;;;18.99;52.91;99864.81;6318992;28;20063;-77
2024/04/04 09:57:59;;;;;;;0.63;0.20;;;;;;;19.80;52.94;99869.84;6319815;28;20055;-77
2024/04/04 10:01:18;;;;;;;0.30;0.30;;;;;;;19.79;50.08;99865.56;6309344;28;20045;-68
2024/04/04 10:04:31;;;;;;;0.50;0.30;;;;;;;19.81;48.96;99865.38;6305036;28;20079;-68
2024/04/04 10:07:32;;;;;;;1.33;0.30;;;;;;;19.07;51.06;99865.72;6307941;28;20052;-67
2024/04/04 10:10:35;;;;;;;1.02;0.40;;;;;;;19.36;49.86;99866.44;6297030;28;20448;-68
2024/04/04 10:13:36;;;;;;;0.30;0.20;;;;;;;19.04;49.00;99855.44;6303978;28;20059;-77
2024/04/04 10:16:38;;;;;;;0.55;0.32;;;;;;;18.77;51.14;99872.19;6318026;28;20040;-77
2024/04/04 10:19:43;;;;;;;;;;;;;;;19.84;50.31;99857.13;6302523;28;20055;-67
2024/04/04 10:22:55;;;;;;;4.15;0.50;;;;;;;20.42;48.60;99861.63;6298585;28;19927;-68
2024/04/04 10:26:07;;;;;;;0.75;0.20;;;;;;;20.19;49.05;99861.41;6304369;28;20544;-67
2024/04/04 10:29:12;;;;;;;0.47;0.35;;;;;;;19.76;49.98;99849.16;6297164;28;20059;-68
2024/04/04 10:32:13;;;;;;;3.78;0.70;;;;;;;19.24;50.09;99868.47;6299132;28;20064;-77
2024/04/04 10:35:14;;;;;;;7.03;2.60;;;;;;;19.63;49.88;99862.78;6313376;28;20196;-76
2024/04/04 10:38:15;;;;;;;2.38;0.93;;;;;;;19.58;47.41;99857.97;6315187;28;20060;-77
2024/04/04 10:41:16;;;;;;;2.60;0.50;;;;;;;19.36;47.72;99861.13;6320248;28;20458;-77
2024/04/04 10:44:19;;;;;;;0.98;0.35;;;;;;;19.53;47.97;99874.28;6314770;28;20064;-77
2024/04/04 10:47:21;;;;;;;2.55;0.52;;;;;;;18.92;48.32;99862.78;6297467;28;20441;-68
2024/04/04 10:50:22;;;;;;;4.30;1.15;;;;;;;18.99;50.16;99873.56;6313753;28;20055;-77
2024/04/04 10:53:23;;;;;;;2.17;0.90;;;;;;;18.62;50.01;99884.28;6312710;28;20048;-77
2024/04/04 10:56:25;;;;;;;3.53;1.00;;;;;;;18.30;50.88;99881.13;6323304;28;20048;-77
2024/04/04 10:59:29;;;;;;;0.90;0.50;;;;;;;18.79;50.19;99886.13;6322667;28;20044;-76
2024/04/04 11:02:34;;;;;;;1.40;0.65;;;;;;;19.00;50.78;99877.88;6318396;28;20052;-68
2024/04/04 11:05:35;;;;;;;5.30;0.60;;;;;;;18.57;51.77;99883.88;6319383;28;20051;-69
2024/04/04 11:08:37;;;;;;;2.28;0.93;;;;;;;19.01;51.41;99878.72;6323160;28;20055;-76
2024/04/04 11:11:43;;;;;;;;;;;;;;;18.96;52.74;99873.03;6324363;28;20131;-67
2024/04/04 11:14:45;;;;;;;4.05;1.13;;;;;;;18.82;52.30;99879.69;6318520;28;19924;-67
2024/04/04 11:17:46;;;;;;;4.35;0.88;;;;;;;18.72;50.85;99877.09;6312549;28;20055;-76
2024/04/04 11:20:47;;;;;;;4.60;1.70;;;;;;;18.78;53.48;99873.84;6324021;28;20055;-67
2024/04/04 11:23:48;;;;;;;2.13;1.02;;;;;;;19.10;53.16;99872.50;6322069;28;20052;-67
2024/04/04 11:26:51;;;;;;;1.30;0.90;;;;;;;19.16;52.62;99876.34;6317309;28;20071;-76
2024/04/04 11:29:52;;;;;;;1.90;0.73;;;;;;;19.30;51.27;99881.91;6297259;28;20084;-76
2024/04/04 11:32:53;;;;;;;2.00;0.57;;;;;;;18.16;50.66;99889.53;6318719;28;20044;-76
2024/04/04 11:35:57;;;;;;;3.08;1.20;;;;;;;18.62;51.41;99897.47;6317922;28;20114;-76
2024/04/04 11:38:59;;;;;;;1.92;1.05;;;;;;;18.87;50.75;99890.66;6323450;28;20056;-68
2024/04/04 11:42:00;;;;;;;;;;;;;;;18.36;50.10;99900.00;6315712;28;20052;-68
2024/04/04 11:45:01;;;;;;;2.88;0.93;;;;;;;18.75;50.95;99887.38;6323124;28;19920;-68
2024/04/04 11:48:03;;;;;;;1.48;0.90;;;;;;;18.96;50.05;99888.91;6323326;28;20055;-76
2024/04/04 11:51:06;;;;;;;1.70;0.80;;;;;;;18.99;51.25;99891.25;6322078;28;20052;-76
2024/04/04 11:54:07;;;;;;;3.10;0.90;;;;;;;19.18;52.05;99877.03;6322200;28;20389;-67
2024/04/04 11:57:09;;;;;;;1.20;0.70;;;;;;;19.06;52.08;99898.41;6321754;28;20074;-76
2024/04/04 12:00:11;;;;;;;2.13;0.90;;;;;;;18.94;51.15;99891.69;6308922;28;20093;-68
2024/04/04 12:03:13;;;;;;;2.85;0.80;;;;;;;18.49;51.58;99890.75;6299663;28;20554;-76
2024/04/04 12:06:14;;;;;;;3.00;0.88;;;;;;;18.53;51.73;99891.25;6303285;28;20048;-76
2024/04/04 12:09:16;;;;;;;1.88;0.85;;;;;;;18.53;50.75;99896.53;6320491;28;20078;-68
2024/04/04 12:12:17;;;;;;;3.85;0.90;;;;;;;18.94;50.78;99894.34;6320886;28;20612;-76
2024/04/04 12:15:18;;;;;;;1.27;0.60;;;;;;;18.70;51.22;99893.09;6321139;28;21285;-67
2024/04/04 12:21:38;;;;;;;1.00;0.63;;;;;;;17.92;51.79;99890.88;6322898;28;20102;-67
2024/04/04 12:24:40;;;;;;;0.73;0.70;;;;;;;18.49;52.16;99887.25;6302016;28;20053;-68
2024/04/04 12:27:44;;;;;;;1.73;0.73;;;;;;;18.88;52.21;99887.00;6308932;28;20094;-67
2024/04/04 12:30:45;;;;;;;0.80;0.70;;;;;;;19.47;51.81;99876.75;6312480;28;20055;-76
2024/04/04 12:33:46;;;;;;;3.30;0.93;;;;;;;19.75;49.02;99880.09;6295991;28;20115;-77
2024/04/04 12:36:47;;;;;;;4.38;0.90;;;;;;;19.65;49.45;99882.00;6295422;28;20041;-77
2024/04/04 12:39:48;;;;;;;6.78;1.10;;;;;;;20.34;47.56;99877.50;6309033;28;20055;-77
2024/04/04 12:42:49;;;;;;;2.67;0.73;;;;;;;19.90;48.17;99875.84;6315067;28;20088;-76
2024/04/04 12:46:01;;;;;;;1.20;0.50;;;;;;;19.88;48.01;99879.66;6303395;28;20051;-77
2024/04/04 12:49:05;;;;;;;2.25;0.77;;;;;;;19.05;47.96;99875.63;6320539;28;20056;-76
2024/04/04 12:52:08;;;;;;;0.73;0.60;;;;;;;19.69;48.33;99880.69;6308852;28;20044;-77
2024/04/04 12:55:10;;;;;;;2.15;0.63;;;;;;;19.35;48.59;99878.81;6314164;28;20097;-77
2024/04/04 12:58:11;;;;;;;2.97;0.90;;;;;;;19.36;50.97;99875.19;6306191;28;20052;-76
2024/04/04 13:01:12;;;;;;;5.25;0.80;;;;;;;19.67;49.95;99872.91;6302950;28;20476;-76
2024/04/04 13:04:13;;;;;;;1.60;0.70;;;;;;;19.24;49.92;99871.94;6300530;28;20044;-76
2024/04/04 13:07:14;;;;;;;5.60;1.20;;;;;;;19.58;52.24;99870.34;6310962;28;20062;-77
2024/04/04 13:10:19;;;;;;;0.82;0.60;;;;;;;19.72;51.27;99867.97;6302738;28;20097;-67
2024/04/04 13:13:39;;;;;;;3.70;0.88;;;;;;;18.86;49.37;99866.03;6301506;28;20098;-77
2024/04/04 13:16:40;;;;;;;5.20;0.85;;;;;;;19.47;50.68;99851.09;6307755;28;20040;-67
2024/04/04 13:19:42;;;;;;;4.50;1.25;;;;;;;19.51;49.85;99859.56;6305782;28;20055;-76
2024/04/04 13:22:43;;;;;;;2.42;0.68;;;;;;;19.12;49.72;99862.59;6303464;28;20055;-68
2024/04/04 13:25:47;;;;;;;1.07;0.53;;;;;;;19.29;50.48;99869.69;6304203;28;20468;-67
2024/04/04 13:28:49;;;;;;;2.97;0.82;;;;;;;19.65;47.92;99860.81;6298237;28;20863;-76
2024/04/04 13:31:52;;;;;;;1.30;0.65;;;;;;;19.66;48.22;99865.09;6298685;28;20561;-67
2024/04/04 13:34:54;;;;;;;2.38;0.73;;;;;;;19.61;48.39;99857.66;6309859;28;20185;-68
2024/04/04 13:37:55;;;;;;;2.63;0.52;;;;;;;19.31;48.49;99866.88;6310045;28;20056;-67
2024/04/04 13:40:56;;;;;;;1.10;0.50;;;;;;;19.02;49.02;99864.50;6320292;28;20556;-67
2024/04/04 13:43:57;;;;;;;2.00;0.60;;;;;;;19.12;47.81;99865.25;6313591;28;20048;-68
2024/04/04 13:47:00;;;;;;;3.17;0.83;;;;;;;19.06;48.59;99873.78;6314309;28;20040;-67
2024/04/04 13:50:02;;;;;;;0.68;0.60;;;;;;;18.92;49.20;99869.88;6317124;28;20051;-68
2024/04/04 13:53:03;;;;;;;2.17;0.40;;;;;;;18.80;49.73;99877.22;6313589;28;20086;-67
2024/04/04 13:56:05;;;;;;;0.80;0.50;;;;;;;18.86;51.02;99873.97;6306749;28;20488;-68
2024/04/04 13:59:08;;;;;;;1.48;0.60;;;;;;;19.18;49.97;99874.38;6294597;28;20286;-67
2024/04/04 14:02:15;;;;;;;1.58;0.50;;;;;;;19.31;50.02;99869.50;6295088;28;20565;-67
2024/04/04 14:05:16;;;;;;;2.03;1.25;;;;;;;19.43;49.48;99872.75;6302285;28;20064;-68
2024/04/04 14:08:16;;;;;;;1.45;0.70;;;;;;;19.58;49.51;99863.25;6315140;28;20492;-67
2024/04/04 14:11:17;;;;;;;0.32;0.32;;;;;;;19.50;48.73;99871.97;6318922;28;20147;-67
2024/04/04 14:14:19;;;;;;;0.63;0.30;;;;;;;19.68;48.28;99860.50;6318244;28;20154;-76
2024/04/04 14:17:20;;;;;;;1.70;0.50;;;;;;;19.47;49.23;99869.63;6315377;28;20045;-76
2024/04/04 14:20:21;;;;;;;3.22;1.58;;;;;;;19.62;49.18;99863.75;6294100;28;20047;-76